sensor_id;sensor_type;location;lat;lon;timestamp;P1;durP1;ratioP1;P2;durP2;ratioP2
7527;SDS011;3805;49.006;8.514;2023-04-24T00:00:49;1.63;;;1.40;;
7527;SDS011;3805;49.006;8.514;2023-04-24T00:03:39;2.00;;;1.47;;
7527;SDS011;3805;49.006;8.514;2023-04-24T00:06:28;3.73;;;1.63;;
7527;SDS011;3805;49.006;8.514;2023-04-24T00:09:20;1.90;;;1.70;;
7527;SDS011;3805;49.006;8.514;2023-04-24T00:12:08;1.50;;;1.30;;
7527;SDS011;3805;49.006;8.514;2023-04-24T00:14:57;2.40;;;1.60;;
7527;SDS011;3805;49.006;8.514;2023-04-24T00:17:47;2.07;;;1.77;;
7527;SDS011;3805;49.006;8.514;2023-04-24T00:20:35;2.30;;;1.70;;
7527;SDS011;3805;49.006;8.514;2023-04-24T00:23:24;2.30;;;1.50;;
7527;SDS011;3805;49.006;8.514;2023-04-24T00:26:13;1.73;;;1.30;;
7527;SDS011;3805;49.006;8.514;2023-04-24T00:29:01;1.50;;;1.40;;
7527;SDS011;3805;49.006;8.514;2023-04-24T00:31:50;1.40;;;1.30;;
7527;SDS011;3805;49.006;8.514;2023-04-24T00:34:40;1.43;;;1.30;;
7527;SDS011;3805;49.006;8.514;2023-04-24T00:37:28;2.30;;;1.40;;
7527;SDS011;3805;49.006;8.514;2023-04-24T00:40:17;2.07;;;1.80;;
7527;SDS011;3805;49.006;8.514;2023-04-24T00:43:05;1.90;;;1.27;;
7527;SDS011;3805;49.006;8.514;2023-04-24T00:45:56;2.90;;;1.40;;
7527;SDS011;3805;49.006;8.514;2023-04-24T00:48:46;2.67;;;1.50;;
7527;SDS011;3805;49.006;8.514;2023-04-24T00:51:36;1.30;;;1.20;;
7527;SDS011;3805;49.006;8.514;2023-04-24T00:54:25;1.80;;;1.70;;
7527;SDS011;3805;49.006;8.514;2023-04-24T00:57:13;1.90;;;1.47;;
7527;SDS011;3805;49.006;8.514;2023-04-24T01:00:03;1.70;;;1.60;;
7527;SDS011;3805;49.006;8.514;2023-04-24T01:02:59;1.83;;;1.70;;
7527;SDS011;3805;49.006;8.514;2023-04-24T01:05:50;2.17;;;1.43;;
7527;SDS011;3805;49.006;8.514;2023-04-24T01:08:40;1.63;;;1.30;;
7527;SDS011;3805;49.006;8.514;2023-04-24T01:11:28;1.37;;;1.27;;
7527;SDS011;3805;49.006;8.514;2023-04-24T01:14:18;1.90;;;1.37;;
7527;SDS011;3805;49.006;8.514;2023-04-24T01:17:06;1.60;;;1.50;;
7527;SDS011;3805;49.006;8.514;2023-04-24T01:19:56;1.50;;;1.40;;
7527;SDS011;3805;49.006;8.514;2023-04-24T01:22:46;2.00;;;1.70;;
7527;SDS011;3805;49.006;8.514;2023-04-24T01:25:34;3.10;;;1.67;;
7527;SDS011;3805;49.006;8.514;2023-04-24T01:28:23;1.53;;;1.43;;
7527;SDS011;3805;49.006;8.514;2023-04-24T01:31:11;4.40;;;1.20;;
7527;SDS011;3805;49.006;8.514;2023-04-24T01:34:00;1.60;;;1.50;;
7527;SDS011;3805;49.006;8.514;2023-04-24T01:36:49;1.50;;;1.33;;
7527;SDS011;3805;49.006;8.514;2023-04-24T01:39:39;1.93;;;1.60;;
7527;SDS011;3805;49.006;8.514;2023-04-24T01:42:28;2.27;;;1.60;;
7527;SDS011;3805;49.006;8.514;2023-04-24T01:45:17;1.60;;;1.50;;
7527;SDS011;3805;49.006;8.514;2023-04-24T01:48:05;1.90;;;1.60;;
7527;SDS011;3805;49.006;8.514;2023-04-24T01:50:53;1.93;;;1.67;;
7527;SDS011;3805;49.006;8.514;2023-04-24T01:53:42;2.00;;;1.50;;
7527;SDS011;3805;49.006;8.514;2023-04-24T01:56:33;1.60;;;1.43;;
7527;SDS011;3805;49.006;8.514;2023-04-24T01:59:22;2.37;;;1.57;;
7527;SDS011;3805;49.006;8.514;2023-04-24T02:02:11;3.53;;;1.77;;
7527;SDS011;3805;49.006;8.514;2023-04-24T02:05:00;2.17;;;1.93;;
7527;SDS011;3805;49.006;8.514;2023-04-24T02:07:49;2.13;;;1.97;;
7527;SDS011;3805;49.006;8.514;2023-04-24T02:10:37;2.13;;;1.60;;
7527;SDS011;3805;49.006;8.514;2023-04-24T02:13:27;2.13;;;1.60;;
7527;SDS011;3805;49.006;8.514;2023-04-24T02:16:15;1.90;;;1.70;;
7527;SDS011;3805;49.006;8.514;2023-04-24T02:19:04;2.23;;;1.57;;
7527;SDS011;3805;49.006;8.514;2023-04-24T02:21:52;3.00;;;1.57;;
7527;SDS011;3805;49.006;8.514;2023-04-24T02:24:41;1.60;;;1.50;;
7527;SDS011;3805;49.006;8.514;2023-04-24T02:27:30;1.53;;;1.43;;
7527;SDS011;3805;49.006;8.514;2023-04-24T02:30:19;2.57;;;1.57;;
7527;SDS011;3805;49.006;8.514;2023-04-24T02:33:08;2.20;;;1.50;;
7527;SDS011;3805;49.006;8.514;2023-04-24T02:35:57;1.50;;;1.40;;
7527;SDS011;3805;49.006;8.514;2023-04-24T02:38:45;1.80;;;1.40;;
7527;SDS011;3805;49.006;8.514;2023-04-24T02:41:33;2.90;;;2.03;;
7527;SDS011;3805;49.006;8.514;2023-04-24T02:44:22;7.57;;;1.77;;
7527;SDS011;3805;49.006;8.514;2023-04-24T02:47:12;3.50;;;1.57;;
7527;SDS011;3805;49.006;8.514;2023-04-24T02:50:01;3.00;;;1.70;;
7527;SDS011;3805;49.006;8.514;2023-04-24T02:52:49;2.07;;;1.40;;
7527;SDS011;3805;49.006;8.514;2023-04-24T02:55:38;1.80;;;1.47;;
7527;SDS011;3805;49.006;8.514;2023-04-24T02:58:26;1.60;;;1.50;;
7527;SDS011;3805;49.006;8.514;2023-04-24T03:01:15;2.37;;;1.60;;
7527;SDS011;3805;49.006;8.514;2023-04-24T03:04:06;3.93;;;1.87;;
7527;SDS011;3805;49.006;8.514;2023-04-24T03:06:55;2.23;;;1.60;;
7527;SDS011;3805;49.006;8.514;2023-04-24T03:09:43;3.00;;;1.90;;
7527;SDS011;3805;49.006;8.514;2023-04-24T03:12:32;6.03;;;1.90;;
7527;SDS011;3805;49.006;8.514;2023-04-24T03:15:20;1.83;;;1.70;;
7527;SDS011;3805;49.006;8.514;2023-04-24T03:18:09;2.33;;;2.13;;
7527;SDS011;3805;49.006;8.514;2023-04-24T03:20:59;1.77;;;1.67;;
7527;SDS011;3805;49.006;8.514;2023-04-24T03:23:47;1.80;;;1.70;;
7527;SDS011;3805;49.006;8.514;2023-04-24T03:26:36;2.47;;;1.60;;
7527;SDS011;3805;49.006;8.514;2023-04-24T03:29:24;2.00;;;1.80;;
7527;SDS011;3805;49.006;8.514;2023-04-24T03:32:15;2.70;;;1.33;;
7527;SDS011;3805;49.006;8.514;2023-04-24T03:35:04;2.23;;;2.03;;
7527;SDS011;3805;49.006;8.514;2023-04-24T03:37:55;1.90;;;1.80;;
7527;SDS011;3805;49.006;8.514;2023-04-24T03:40:43;2.53;;;1.63;;
7527;SDS011;3805;49.006;8.514;2023-04-24T03:43:32;2.03;;;1.63;;
7527;SDS011;3805;49.006;8.514;2023-04-24T03:46:21;2.73;;;1.97;;
7527;SDS011;3805;49.006;8.514;2023-04-24T03:49:10;1.97;;;1.77;;
7527;SDS011;3805;49.006;8.514;2023-04-24T03:51:58;1.87;;;1.70;;
7527;SDS011;3805;49.006;8.514;2023-04-24T03:54:48;2.23;;;2.03;;
7527;SDS011;3805;49.006;8.514;2023-04-24T03:57:37;2.00;;;1.90;;
7527;SDS011;3805;49.006;8.514;2023-04-24T04:00:25;2.40;;;2.20;;
7527;SDS011;3805;49.006;8.514;2023-04-24T04:03:14;2.63;;;2.03;;
7527;SDS011;3805;49.006;8.514;2023-04-24T04:06:03;2.40;;;2.20;;
7527;SDS011;3805;49.006;8.514;2023-04-24T04:08:52;2.40;;;2.20;;
7527;SDS011;3805;49.006;8.514;2023-04-24T04:11:42;2.20;;;2.00;;
7527;SDS011;3805;49.006;8.514;2023-04-24T04:14:30;5.60;;;2.53;;
7527;SDS011;3805;49.006;8.514;2023-04-24T04:17:19;5.50;;;3.60;;
7527;SDS011;3805;49.006;8.514;2023-04-24T04:20:07;2.10;;;2.00;;
7527;SDS011;3805;49.006;8.514;2023-04-24T04:22:57;2.37;;;2.00;;
7527;SDS011;3805;49.006;8.514;2023-04-24T04:25:46;2.10;;;2.00;;
7527;SDS011;3805;49.006;8.514;2023-04-24T04:28:36;4.73;;;1.87;;
7527;SDS011;3805;49.006;8.514;2023-04-24T04:31:25;2.50;;;2.30;;
7527;SDS011;3805;49.006;8.514;2023-04-24T04:34:13;2.23;;;2.13;;
7527;SDS011;3805;49.006;8.514;2023-04-24T04:37:02;4.50;;;2.23;;
7527;SDS011;3805;49.006;8.514;2023-04-24T04:39:50;2.50;;;2.30;;
7527;SDS011;3805;49.006;8.514;2023-04-24T04:42:40;2.50;;;2.30;;
7527;SDS011;3805;49.006;8.514;2023-04-24T04:45:30;2.70;;;2.50;;
7527;SDS011;3805;49.006;8.514;2023-04-24T04:48:19;2.50;;;2.30;;
7527;SDS011;3805;49.006;8.514;2023-04-24T04:51:08;2.10;;;1.90;;
7527;SDS011;3805;49.006;8.514;2023-04-24T04:53:56;2.13;;;2.03;;
7527;SDS011;3805;49.006;8.514;2023-04-24T04:56:45;2.53;;;2.33;;
7527;SDS011;3805;49.006;8.514;2023-04-24T04:59:34;2.37;;;2.17;;
7527;SDS011;3805;49.006;8.514;2023-04-24T05:02:25;4.80;;;2.37;;
7527;SDS011;3805;49.006;8.514;2023-04-24T05:05:14;2.83;;;2.60;;
7527;SDS011;3805;49.006;8.514;2023-04-24T05:08:04;3.47;;;2.87;;
7527;SDS011;3805;49.006;8.514;2023-04-24T05:10:57;3.20;;;2.57;;
7527;SDS011;3805;49.006;8.514;2023-04-24T05:13:45;3.43;;;3.10;;
7527;SDS011;3805;49.006;8.514;2023-04-24T05:16:34;2.47;;;2.37;;
7527;SDS011;3805;49.006;8.514;2023-04-24T05:19:25;3.70;;;2.70;;
7527;SDS011;3805;49.006;8.514;2023-04-24T05:22:13;2.70;;;2.50;;
7527;SDS011;3805;49.006;8.514;2023-04-24T05:25:02;3.80;;;3.50;;
7527;SDS011;3805;49.006;8.514;2023-04-24T05:27:51;3.60;;;3.30;;
7527;SDS011;3805;49.006;8.514;2023-04-24T05:30:40;3.33;;;3.03;;
7527;SDS011;3805;49.006;8.514;2023-04-24T05:33:29;4.90;;;4.17;;
7527;SDS011;3805;49.006;8.514;2023-04-24T05:36:19;3.70;;;3.40;;
7527;SDS011;3805;49.006;8.514;2023-04-24T05:39:07;3.73;;;3.50;;
7527;SDS011;3805;49.006;8.514;2023-04-24T05:41:56;3.30;;;3.10;;
7527;SDS011;3805;49.006;8.514;2023-04-24T05:44:45;3.37;;;3.17;;
7527;SDS011;3805;49.006;8.514;2023-04-24T05:47:34;3.27;;;3.03;;
7527;SDS011;3805;49.006;8.514;2023-04-24T05:50:22;2.87;;;2.67;;
7527;SDS011;3805;49.006;8.514;2023-04-24T05:53:12;4.37;;;3.50;;
7527;SDS011;3805;49.006;8.514;2023-04-24T05:56:01;3.30;;;3.00;;
7527;SDS011;3805;49.006;8.514;2023-04-24T05:58:49;2.53;;;2.33;;
7527;SDS011;3805;49.006;8.514;2023-04-24T06:01:38;3.70;;;3.40;;
7527;SDS011;3805;49.006;8.514;2023-04-24T06:04:27;4.33;;;3.13;;
7527;SDS011;3805;49.006;8.514;2023-04-24T06:07:16;2.93;;;2.60;;
7527;SDS011;3805;49.006;8.514;2023-04-24T06:10:07;2.60;;;2.50;;
7527;SDS011;3805;49.006;8.514;2023-04-24T06:12:56;2.80;;;2.60;;
7527;SDS011;3805;49.006;8.514;2023-04-24T06:15:47;3.80;;;3.50;;
7527;SDS011;3805;49.006;8.514;2023-04-24T06:18:35;2.77;;;2.57;;
7527;SDS011;3805;49.006;8.514;2023-04-24T06:21:24;3.80;;;3.40;;
7527;SDS011;3805;49.006;8.514;2023-04-24T06:24:13;2.73;;;2.53;;
7527;SDS011;3805;49.006;8.514;2023-04-24T06:27:04;6.20;;;2.97;;
7527;SDS011;3805;49.006;8.514;2023-04-24T06:29:53;3.93;;;2.67;;
7527;SDS011;3805;49.006;8.514;2023-04-24T06:32:42;3.83;;;2.93;;
7527;SDS011;3805;49.006;8.514;2023-04-24T06:35:30;3.00;;;2.80;;
7527;SDS011;3805;49.006;8.514;2023-04-24T06:38:19;3.40;;;3.20;;
7527;SDS011;3805;49.006;8.514;2023-04-24T06:41:09;3.10;;;2.90;;
7527;SDS011;3805;49.006;8.514;2023-04-24T06:43:59;3.43;;;2.67;;
7527;SDS011;3805;49.006;8.514;2023-04-24T06:46:47;2.53;;;2.33;;
7527;SDS011;3805;49.006;8.514;2023-04-24T06:49:36;5.33;;;3.30;;
7527;SDS011;3805;49.006;8.514;2023-04-24T06:52:25;2.60;;;2.27;;
7527;SDS011;3805;49.006;8.514;2023-04-24T06:55:13;3.73;;;3.43;;
7527;SDS011;3805;49.006;8.514;2023-04-24T06:58:03;3.20;;;3.00;;
7527;SDS011;3805;49.006;8.514;2023-04-24T07:00:54;2.80;;;2.60;;
7527;SDS011;3805;49.006;8.514;2023-04-24T07:03:43;2.67;;;2.47;;
7527;SDS011;3805;49.006;8.514;2023-04-24T07:06:32;3.20;;;2.90;;
7527;SDS011;3805;49.006;8.514;2023-04-24T07:09:20;5.30;;;3.00;;
7527;SDS011;3805;49.006;8.514;2023-04-24T07:12:09;2.80;;;2.60;;
7527;SDS011;3805;49.006;8.514;2023-04-24T07:14:58;3.53;;;2.70;;
7527;SDS011;3805;49.006;8.514;2023-04-24T07:17:48;11.93;;;3.10;;
7527;SDS011;3805;49.006;8.514;2023-04-24T07:20:37;4.80;;;2.50;;
7527;SDS011;3805;49.006;8.514;2023-04-24T07:23:25;3.90;;;2.80;;
7527;SDS011;3805;49.006;8.514;2023-04-24T07:26:14;4.53;;;2.60;;
7527;SDS011;3805;49.006;8.514;2023-04-24T07:29:02;3.13;;;2.60;;
7527;SDS011;3805;49.006;8.514;2023-04-24T07:31:51;3.70;;;2.40;;
7527;SDS011;3805;49.006;8.514;2023-04-24T07:34:42;2.90;;;2.60;;
7527;SDS011;3805;49.006;8.514;2023-04-24T07:37:31;3.00;;;2.80;;
7527;SDS011;3805;49.006;8.514;2023-04-24T07:40:19;3.07;;;2.63;;
7527;SDS011;3805;49.006;8.514;2023-04-24T07:43:08;3.90;;;3.07;;
7527;SDS011;3805;49.006;8.514;2023-04-24T07:45:56;4.83;;;3.00;;
7527;SDS011;3805;49.006;8.514;2023-04-24T07:48:45;3.07;;;2.67;;
7527;SDS011;3805;49.006;8.514;2023-04-24T07:51:49;3.60;;;2.30;;
7527;SDS011;3805;49.006;8.514;2023-04-24T07:54:38;2.50;;;2.40;;
7527;SDS011;3805;49.006;8.514;2023-04-24T07:57:26;2.70;;;2.30;;
7527;SDS011;3805;49.006;8.514;2023-04-24T08:00:15;2.67;;;2.20;;
7527;SDS011;3805;49.006;8.514;2023-04-24T08:03:04;1.70;;;1.60;;
7527;SDS011;3805;49.006;8.514;2023-04-24T08:05:52;2.93;;;2.10;;
7527;SDS011;3805;49.006;8.514;2023-04-24T08:08:43;2.53;;;2.03;;
7527;SDS011;3805;49.006;8.514;2023-04-24T08:11:31;2.23;;;2.10;;
7527;SDS011;3805;49.006;8.514;2023-04-24T08:14:20;1.87;;;1.77;;
7527;SDS011;3805;49.006;8.514;2023-04-24T08:17:08;3.80;;;2.37;;
7527;SDS011;3805;49.006;8.514;2023-04-24T08:19:57;2.20;;;2.00;;
7527;SDS011;3805;49.006;8.514;2023-04-24T08:22:48;3.23;;;2.27;;
7527;SDS011;3805;49.006;8.514;2023-04-24T08:25:38;2.90;;;2.70;;
7527;SDS011;3805;49.006;8.514;2023-04-24T08:28:27;2.80;;;2.43;;
7527;SDS011;3805;49.006;8.514;2023-04-24T08:31:15;2.60;;;2.37;;
7527;SDS011;3805;49.006;8.514;2023-04-24T08:34:04;2.50;;;2.30;;
7527;SDS011;3805;49.006;8.514;2023-04-24T08:36:52;4.70;;;2.20;;
7527;SDS011;3805;49.006;8.514;2023-04-24T08:39:42;1.90;;;1.80;;
7527;SDS011;3805;49.006;8.514;2023-04-24T08:42:32;1.83;;;1.73;;
7527;SDS011;3805;49.006;8.514;2023-04-24T08:45:22;2.30;;;2.10;;
7527;SDS011;3805;49.006;8.514;2023-04-24T08:48:11;2.60;;;2.27;;
7527;SDS011;3805;49.006;8.514;2023-04-24T08:51:13;2.60;;;2.07;;
7527;SDS011;3805;49.006;8.514;2023-04-24T08:54:02;3.87;;;2.00;;
7527;SDS011;3805;49.006;8.514;2023-04-24T08:56:51;3.00;;;2.50;;
7527;SDS011;3805;49.006;8.514;2023-04-24T08:59:43;3.80;;;2.57;;
7527;SDS011;3805;49.006;8.514;2023-04-24T09:02:32;4.73;;;2.20;;
7527;SDS011;3805;49.006;8.514;2023-04-24T09:05:22;2.07;;;1.93;;
7527;SDS011;3805;49.006;8.514;2023-04-24T09:08:14;5.30;;;2.43;;
7527;SDS011;3805;49.006;8.514;2023-04-24T09:11:04;4.57;;;2.80;;
7527;SDS011;3805;49.006;8.514;2023-04-24T09:13:53;2.43;;;2.23;;
7527;SDS011;3805;49.006;8.514;2023-04-24T09:16:43;3.10;;;2.60;;
7527;SDS011;3805;49.006;8.514;2023-04-24T09:19:31;3.63;;;2.07;;
7527;SDS011;3805;49.006;8.514;2023-04-24T09:22:20;2.17;;;2.00;;
7527;SDS011;3805;49.006;8.514;2023-04-24T09:25:09;2.33;;;2.13;;
7527;SDS011;3805;49.006;8.514;2023-04-24T09:28:00;2.87;;;2.30;;
7527;SDS011;3805;49.006;8.514;2023-04-24T09:30:53;3.80;;;2.80;;
7527;SDS011;3805;49.006;8.514;2023-04-24T09:33:55;4.10;;;2.77;;
7527;SDS011;3805;49.006;8.514;2023-04-24T09:36:48;3.00;;;2.80;;
7527;SDS011;3805;49.006;8.514;2023-04-24T09:39:36;3.10;;;2.90;;
7527;SDS011;3805;49.006;8.514;2023-04-24T09:42:25;3.83;;;3.53;;
7527;SDS011;3805;49.006;8.514;2023-04-24T09:45:17;3.73;;;3.43;;
7527;SDS011;3805;49.006;8.514;2023-04-24T09:48:08;3.53;;;3.33;;
7527;SDS011;3805;49.006;8.514;2023-04-24T09:50:59;3.43;;;3.23;;
7527;SDS011;3805;49.006;8.514;2023-04-24T09:53:50;4.00;;;3.70;;
7527;SDS011;3805;49.006;8.514;2023-04-24T09:56:41;4.60;;;4.13;;
7527;SDS011;3805;49.006;8.514;2023-04-24T09:59:31;4.77;;;4.47;;
7527;SDS011;3805;49.006;8.514;2023-04-24T10:02:23;5.43;;;3.80;;
7527;SDS011;3805;49.006;8.514;2023-04-24T10:05:11;3.73;;;3.50;;
7527;SDS011;3805;49.006;8.514;2023-04-24T10:08:02;3.37;;;3.07;;
7527;SDS011;3805;49.006;8.514;2023-04-24T10:10:52;5.43;;;3.80;;
7527;SDS011;3805;49.006;8.514;2023-04-24T10:13:40;3.47;;;3.17;;
7527;SDS011;3805;49.006;8.514;2023-04-24T10:16:29;5.67;;;2.97;;
7527;SDS011;3805;49.006;8.514;2023-04-24T10:19:18;4.87;;;2.87;;
7527;SDS011;3805;49.006;8.514;2023-04-24T10:22:07;3.40;;;3.20;;
7527;SDS011;3805;49.006;8.514;2023-04-24T10:24:57;2.70;;;2.27;;
7527;SDS011;3805;49.006;8.514;2023-04-24T10:27:47;3.83;;;3.20;;
7527;SDS011;3805;49.006;8.514;2023-04-24T10:30:36;2.93;;;2.70;;
7527;SDS011;3805;49.006;8.514;2023-04-24T10:33:25;2.97;;;2.77;;
7527;SDS011;3805;49.006;8.514;2023-04-24T10:36:14;2.50;;;2.30;;
7527;SDS011;3805;49.006;8.514;2023-04-24T10:39:03;3.63;;;2.57;;
7527;SDS011;3805;49.006;8.514;2023-04-24T10:41:56;3.07;;;2.87;;
7527;SDS011;3805;49.006;8.514;2023-04-24T10:44:47;3.37;;;3.17;;
7527;SDS011;3805;49.006;8.514;2023-04-24T10:47:39;6.93;;;4.20;;
7527;SDS011;3805;49.006;8.514;2023-04-24T10:50:28;3.67;;;3.37;;
7527;SDS011;3805;49.006;8.514;2023-04-24T10:53:18;4.13;;;3.83;;
7527;SDS011;3805;49.006;8.514;2023-04-24T10:56:08;3.93;;;3.40;;
7527;SDS011;3805;49.006;8.514;2023-04-24T10:58:59;3.30;;;3.10;;
7527;SDS011;3805;49.006;8.514;2023-04-24T11:01:52;5.00;;;3.80;;
7527;SDS011;3805;49.006;8.514;2023-04-24T11:04:41;4.30;;;3.63;;
7527;SDS011;3805;49.006;8.514;2023-04-24T11:10:59;6.17;;;4.77;;
7527;SDS011;3805;49.006;8.514;2023-04-24T11:14:06;5.67;;;4.23;;
7527;SDS011;3805;49.006;8.514;2023-04-24T11:16:55;4.60;;;4.20;;
7527;SDS011;3805;49.006;8.514;2023-04-24T11:19:44;4.23;;;3.83;;
7527;SDS011;3805;49.006;8.514;2023-04-24T11:22:40;3.90;;;3.60;;
7527;SDS011;3805;49.006;8.514;2023-04-24T11:25:30;4.07;;;3.77;;
7527;SDS011;3805;49.006;8.514;2023-04-24T11:28:19;4.10;;;3.80;;
7527;SDS011;3805;49.006;8.514;2023-04-24T11:34:25;4.30;;;3.97;;
7527;SDS011;3805;49.006;8.514;2023-04-24T11:37:14;6.47;;;4.80;;
7527;SDS011;3805;49.006;8.514;2023-04-24T11:40:03;4.87;;;4.57;;
7527;SDS011;3805;49.006;8.514;2023-04-24T11:42:53;6.30;;;5.70;;
7527;SDS011;3805;49.006;8.514;2023-04-24T11:45:47;5.87;;;5.23;;
7527;SDS011;3805;49.006;8.514;2023-04-24T11:48:37;5.80;;;5.20;;
7527;SDS011;3805;49.006;8.514;2023-04-24T11:51:27;5.40;;;4.97;;
7527;SDS011;3805;49.006;8.514;2023-04-24T11:54:26;4.53;;;4.13;;
7527;SDS011;3805;49.006;8.514;2023-04-24T11:57:14;6.80;;;6.10;;
7527;SDS011;3805;49.006;8.514;2023-04-24T12:00:03;5.77;;;4.43;;
7527;SDS011;3805;49.006;8.514;2023-04-24T12:03:03;5.33;;;4.80;;
7527;SDS011;3805;49.006;8.514;2023-04-24T12:06:05;5.30;;;4.90;;
7527;SDS011;3805;49.006;8.514;2023-04-24T12:08:54;8.50;;;5.53;;
7527;SDS011;3805;49.006;8.514;2023-04-24T12:11:54;5.93;;;5.33;;
7527;SDS011;3805;49.006;8.514;2023-04-24T12:14:46;8.20;;;6.20;;
7527;SDS011;3805;49.006;8.514;2023-04-24T12:17:35;5.63;;;5.10;;
7527;SDS011;3805;49.006;8.514;2023-04-24T12:20:25;5.63;;;5.07;;
7527;SDS011;3805;49.006;8.514;2023-04-24T12:23:15;5.17;;;4.77;;
7527;SDS011;3805;49.006;8.514;2023-04-24T12:26:06;7.53;;;6.60;;
7527;SDS011;3805;49.006;8.514;2023-04-24T12:28:54;5.53;;;4.93;;
7527;SDS011;3805;49.006;8.514;2023-04-24T12:31:43;4.60;;;4.23;;
7527;SDS011;3805;49.006;8.514;2023-04-24T12:34:31;5.27;;;4.27;;
7527;SDS011;3805;49.006;8.514;2023-04-24T12:37:20;4.70;;;4.30;;
7527;SDS011;3805;49.006;8.514;2023-04-24T12:40:10;4.53;;;4.23;;
7527;SDS011;3805;49.006;8.514;2023-04-24T12:42:59;4.90;;;4.50;;
7527;SDS011;3805;49.006;8.514;2023-04-24T12:45:48;5.40;;;4.30;;
7527;SDS011;3805;49.006;8.514;2023-04-24T12:48:37;5.00;;;4.60;;
7527;SDS011;3805;49.006;8.514;2023-04-24T12:51:26;3.70;;;3.40;;
7527;SDS011;3805;49.006;8.514;2023-04-24T12:54:14;5.77;;;4.93;;
7527;SDS011;3805;49.006;8.514;2023-04-24T12:57:04;5.93;;;5.20;;
7527;SDS011;3805;49.006;8.514;2023-04-24T12:59:53;6.63;;;4.50;;
7527;SDS011;3805;49.006;8.514;2023-04-24T13:02:42;3.90;;;3.60;;
7527;SDS011;3805;49.006;8.514;2023-04-24T13:05:31;4.30;;;3.90;;
7527;SDS011;3805;49.006;8.514;2023-04-24T13:08:19;5.77;;;4.50;;
7527;SDS011;3805;49.006;8.514;2023-04-24T13:11:08;6.30;;;3.13;;
7527;SDS011;3805;49.006;8.514;2023-04-24T13:13:57;4.40;;;4.00;;
7527;SDS011;3805;49.006;8.514;2023-04-24T13:16:46;5.53;;;4.27;;
7527;SDS011;3805;49.006;8.514;2023-04-24T13:19:35;5.03;;;3.53;;
7527;SDS011;3805;49.006;8.514;2023-04-24T13:22:25;5.17;;;4.67;;
7527;SDS011;3805;49.006;8.514;2023-04-24T13:25:14;4.87;;;4.57;;
7527;SDS011;3805;49.006;8.514;2023-04-24T13:28:04;4.70;;;4.33;;
7527;SDS011;3805;49.006;8.514;2023-04-24T13:30:54;4.67;;;4.27;;
7527;SDS011;3805;49.006;8.514;2023-04-24T13:33:43;4.13;;;3.80;;
7527;SDS011;3805;49.006;8.514;2023-04-24T13:36:31;4.20;;;3.90;;
7527;SDS011;3805;49.006;8.514;2023-04-24T13:39:20;5.80;;;4.07;;
7527;SDS011;3805;49.006;8.514;2023-04-24T13:42:09;4.30;;;4.00;;
7527;SDS011;3805;49.006;8.514;2023-04-24T13:44:57;4.17;;;3.87;;
7527;SDS011;3805;49.006;8.514;2023-04-24T13:47:51;4.30;;;3.90;;
7527;SDS011;3805;49.006;8.514;2023-04-24T13:50:41;4.27;;;3.87;;
7527;SDS011;3805;49.006;8.514;2023-04-24T13:53:29;3.90;;;3.50;;
7527;SDS011;3805;49.006;8.514;2023-04-24T13:56:19;4.73;;;4.20;;
7527;SDS011;3805;49.006;8.514;2023-04-24T13:59:07;4.13;;;3.83;;
7527;SDS011;3805;49.006;8.514;2023-04-24T14:01:56;4.63;;;4.23;;
7527;SDS011;3805;49.006;8.514;2023-04-24T14:04:46;4.37;;;3.50;;
7527;SDS011;3805;49.006;8.514;2023-04-24T14:07:35;3.70;;;3.40;;
7527;SDS011;3805;49.006;8.514;2023-04-24T14:10:24;3.90;;;3.60;;
7527;SDS011;3805;49.006;8.514;2023-04-24T14:13:14;4.20;;;3.37;;
7527;SDS011;3805;49.006;8.514;2023-04-24T14:16:02;3.80;;;3.50;;
7527;SDS011;3805;49.006;8.514;2023-04-24T14:18:51;3.70;;;3.40;;
7527;SDS011;3805;49.006;8.514;2023-04-24T14:21:41;3.50;;;3.20;;
7527;SDS011;3805;49.006;8.514;2023-04-24T14:24:29;3.43;;;3.13;;
7527;SDS011;3805;49.006;8.514;2023-04-24T14:27:18;4.53;;;3.50;;
7527;SDS011;3805;49.006;8.514;2023-04-24T14:30:07;4.00;;;3.60;;
7527;SDS011;3805;49.006;8.514;2023-04-24T14:32:56;4.57;;;4.17;;
7527;SDS011;3805;49.006;8.514;2023-04-24T14:35:45;5.67;;;5.17;;
7527;SDS011;3805;49.006;8.514;2023-04-24T14:38:35;3.80;;;3.37;;
7527;SDS011;3805;49.006;8.514;2023-04-24T14:41:24;4.33;;;3.97;;
7527;SDS011;3805;49.006;8.514;2023-04-24T14:44:12;3.80;;;3.50;;
7527;SDS011;3805;49.006;8.514;2023-04-24T14:47:01;6.83;;;4.60;;
7527;SDS011;3805;49.006;8.514;2023-04-24T14:49:49;4.00;;;3.70;;
7527;SDS011;3805;49.006;8.514;2023-04-24T14:52:38;4.60;;;4.20;;
7527;SDS011;3805;49.006;8.514;2023-04-24T14:55:28;3.43;;;3.13;;
7527;SDS011;3805;49.006;8.514;2023-04-24T14:58:17;2.97;;;2.70;;
7527;SDS011;3805;49.006;8.514;2023-04-24T15:01:05;3.10;;;2.90;;
7527;SDS011;3805;49.006;8.514;2023-04-24T15:03:54;2.93;;;2.73;;
7527;SDS011;3805;49.006;8.514;2023-04-24T15:06:43;2.90;;;2.70;;
7527;SDS011;3805;49.006;8.514;2023-04-24T15:09:31;3.63;;;3.43;;
7527;SDS011;3805;49.006;8.514;2023-04-24T15:12:21;3.00;;;2.80;;
7527;SDS011;3805;49.006;8.514;2023-04-24T15:15:10;3.23;;;2.90;;
7527;SDS011;3805;49.006;8.514;2023-04-24T15:17:58;3.60;;;3.30;;
7527;SDS011;3805;49.006;8.514;2023-04-24T15:20:47;4.50;;;3.30;;
7527;SDS011;3805;49.006;8.514;2023-04-24T15:23:36;3.67;;;3.40;;
7527;SDS011;3805;49.006;8.514;2023-04-24T15:26:24;4.23;;;3.93;;
7527;SDS011;3805;49.006;8.514;2023-04-24T15:29:14;3.23;;;3.03;;
7527;SDS011;3805;49.006;8.514;2023-04-24T15:32:03;3.60;;;3.30;;
7527;SDS011;3805;49.006;8.514;2023-04-24T15:34:55;3.30;;;3.10;;
7527;SDS011;3805;49.006;8.514;2023-04-24T15:37:54;3.47;;;3.17;;
7527;SDS011;3805;49.006;8.514;2023-04-24T15:40:43;2.80;;;2.60;;
7527;SDS011;3805;49.006;8.514;2023-04-24T15:43:32;3.20;;;2.90;;
7527;SDS011;3805;49.006;8.514;2023-04-24T15:46:22;3.30;;;3.00;;
7527;SDS011;3805;49.006;8.514;2023-04-24T15:49:11;3.30;;;2.90;;
7527;SDS011;3805;49.006;8.514;2023-04-24T15:52:00;3.13;;;2.80;;
7527;SDS011;3805;49.006;8.514;2023-04-24T15:54:48;5.33;;;4.57;;
7527;SDS011;3805;49.006;8.514;2023-04-24T15:57:37;3.93;;;3.63;;
7527;SDS011;3805;49.006;8.514;2023-04-24T16:00:25;3.83;;;3.57;;
7527;SDS011;3805;49.006;8.514;2023-04-24T16:03:21;3.37;;;3.07;;
7527;SDS011;3805;49.006;8.514;2023-04-24T16:06:10;5.93;;;3.70;;
7527;SDS011;3805;49.006;8.514;2023-04-24T16:08:58;3.60;;;3.30;;
7527;SDS011;3805;49.006;8.514;2023-04-24T16:11:49;3.80;;;3.50;;
7527;SDS011;3805;49.006;8.514;2023-04-24T16:14:38;3.60;;;3.30;;
7527;SDS011;3805;49.006;8.514;2023-04-24T16:17:26;6.37;;;4.80;;
7527;SDS011;3805;49.006;8.514;2023-04-24T16:20:16;4.53;;;4.13;;
7527;SDS011;3805;49.006;8.514;2023-04-24T16:23:05;4.17;;;3.87;;
7527;SDS011;3805;49.006;8.514;2023-04-24T16:25:53;6.00;;;3.90;;
7527;SDS011;3805;49.006;8.514;2023-04-24T16:28:42;4.90;;;4.50;;
7527;SDS011;3805;49.006;8.514;2023-04-24T16:31:30;3.50;;;2.90;;
7527;SDS011;3805;49.006;8.514;2023-04-24T16:34:19;5.80;;;3.90;;
7527;SDS011;3805;49.006;8.514;2023-04-24T16:37:09;3.50;;;3.20;;
7527;SDS011;3805;49.006;8.514;2023-04-24T16:39:58;3.20;;;3.00;;
7527;SDS011;3805;49.006;8.514;2023-04-24T16:42:47;3.50;;;3.20;;
7527;SDS011;3805;49.006;8.514;2023-04-24T16:45:36;3.53;;;3.10;;
7527;SDS011;3805;49.006;8.514;2023-04-24T16:48:24;3.33;;;3.10;;
7527;SDS011;3805;49.006;8.514;2023-04-24T16:51:13;3.57;;;3.20;;
7527;SDS011;3805;49.006;8.514;2023-04-24T16:54:03;3.90;;;3.50;;
7527;SDS011;3805;49.006;8.514;2023-04-24T16:56:51;3.53;;;3.33;;
7527;SDS011;3805;49.006;8.514;2023-04-24T16:59:40;5.20;;;4.00;;
7527;SDS011;3805;49.006;8.514;2023-04-24T17:02:29;4.60;;;3.43;;
7527;SDS011;3805;49.006;8.514;2023-04-24T17:05:18;3.83;;;3.63;;
7527;SDS011;3805;49.006;8.514;2023-04-24T17:08:09;3.87;;;3.57;;
7527;SDS011;3805;49.006;8.514;2023-04-24T17:10:59;4.37;;;3.43;;
7527;SDS011;3805;49.006;8.514;2023-04-24T17:13:47;3.80;;;3.60;;
7527;SDS011;3805;49.006;8.514;2023-04-24T17:16:36;3.83;;;3.53;;
7527;SDS011;3805;49.006;8.514;2023-04-24T17:19:26;5.63;;;3.70;;
7527;SDS011;3805;49.006;8.514;2023-04-24T17:22:14;4.50;;;4.20;;
7527;SDS011;3805;49.006;8.514;2023-04-24T17:25:03;5.83;;;5.40;;
7527;SDS011;3805;49.006;8.514;2023-04-24T17:27:54;3.60;;;3.40;;
7527;SDS011;3805;49.006;8.514;2023-04-24T17:30:42;3.90;;;3.63;;
7527;SDS011;3805;49.006;8.514;2023-04-24T17:33:31;3.50;;;3.30;;
7527;SDS011;3805;49.006;8.514;2023-04-24T17:36:19;3.37;;;3.17;;
7527;SDS011;3805;49.006;8.514;2023-04-24T17:39:08;5.10;;;4.23;;